createdAt,value
2024-02-26T00:02:19.904Z,101439.13
2024-02-26T00:04:47.412Z,101471.47
2024-02-26T00:07:14.988Z,101459.25
2024-02-26T00:09:42.678Z,101464.72
2024-02-26T00:12:10.389Z,101460.28
2024-02-26T00:14:38.199Z,101466.50
2024-02-26T00:17:05.650Z,101457.06
2024-02-26T00:19:33.549Z,101460.16
2024-02-26T00:22:01.279Z,101456.94
2024-02-26T00:24:28.837Z,101460.59
2024-02-26T00:26:56.670Z,101468.03
2024-02-26T00:29:24.665Z,101453.25
2024-02-26T00:31:52.150Z,101450.63
2024-02-26T00:34:20.116Z,101424.91
2024-02-26T00:36:48.005Z,101454.25
2024-02-26T00:39:16.624Z,101450.06
2024-02-26T00:41:44.241Z,101464.72
2024-02-26T00:44:11.937Z,101441.72
2024-02-26T00:46:39.745Z,101460.47
2024-02-26T00:49:09.448Z,101462.19
2024-02-26T00:51:37.142Z,101467.59
2024-02-26T00:54:04.681Z,101470.19
2024-02-26T00:56:32.308Z,101467.53
2024-02-26T00:59:00.170Z,101441.50
2024-02-26T01:01:27.704Z,101457.78
2024-02-26T01:03:55.308Z,101457.72
2024-02-26T01:06:23.901Z,101424.56
2024-02-26T01:08:51.893Z,101461.22
2024-02-26T01:11:19.640Z,101469.94
2024-02-26T01:13:47.477Z,101432.59
2024-02-26T01:16:17.042Z,101450.75
2024-02-26T01:18:44.661Z,101335.66
2024-02-26T01:21:12.538Z,101459.47
2024-02-26T01:23:40.327Z,101459.09
2024-02-26T01:26:08.153Z,101457.16
2024-02-26T01:28:35.748Z,101461.13
2024-02-26T01:33:34.238Z,101453.97
2024-02-26T01:36:02.285Z,101466.69
2024-02-26T01:38:30.125Z,101462.13
2024-02-26T01:40:57.631Z,101455.03
2024-02-26T01:43:25.198Z,101460.25
2024-02-26T01:45:52.780Z,101446.00
2024-02-26T01:48:20.560Z,101464.00
2024-02-26T01:50:48.444Z,101434.72
2024-02-26T01:53:17.991Z,101412.78
2024-02-26T01:55:45.646Z,101466.09
2024-02-26T01:58:15.080Z,101447.88
2024-02-26T02:00:43.558Z,101455.44
2024-02-26T02:03:11.275Z,101437.53
2024-02-26T02:05:43.750Z,101463.47
2024-02-26T02:08:15.592Z,101449.34
2024-02-26T02:10:44.081Z,101445.94
2024-02-26T02:13:11.729Z,101443.31
2024-02-26T02:15:39.265Z,101449.50
2024-02-26T02:18:07.904Z,101416.38
2024-02-26T02:20:36.522Z,101446.75
2024-02-26T02:23:05.151Z,101453.44
2024-02-26T02:25:32.683Z,101439.38
2024-02-26T02:28:00.588Z,101448.06
2024-02-26T02:30:32.604Z,101446.75
2024-02-26T02:33:00.645Z,101439.72
2024-02-26T02:35:28.343Z,101457.38
2024-02-26T02:37:59.016Z,101432.09
2024-02-26T02:40:26.782Z,101447.47
2024-02-26T02:42:54.859Z,101381.59
2024-02-26T02:45:22.376Z,101431.13
2024-02-26T02:47:50.718Z,101403.81
2024-02-26T02:50:18.482Z,101416.69
2024-02-26T02:52:46.204Z,101438.72
2024-02-26T02:55:15.472Z,101431.06
2024-02-26T02:57:43.921Z,101423.34
2024-02-26T03:00:12.456Z,101435.03
2024-02-26T03:02:40.654Z,101411.44
2024-02-26T03:05:08.929Z,101424.50
2024-02-26T03:07:36.617Z,101424.06
2024-02-26T03:10:04.594Z,101387.66
2024-02-26T03:12:33.221Z,101412.00
2024-02-26T03:15:04.048Z,101416.94
2024-02-26T03:17:33.685Z,101419.22
2024-02-26T03:20:01.768Z,101404.75
2024-02-26T03:22:29.717Z,101411.53
2024-02-26T03:24:57.081Z,101402.13
2024-02-26T03:27:25.075Z,101411.72
2024-02-26T03:29:54.081Z,101415.44
2024-02-26T03:32:22.330Z,101414.34
2024-02-26T03:34:50.023Z,101418.69
2024-02-26T03:37:18.284Z,101406.28
2024-02-26T03:39:46.299Z,101401.41
2024-02-26T03:42:13.888Z,101409.31
2024-02-26T03:44:41.370Z,101398.66
2024-02-26T03:47:09.202Z,101405.53
2024-02-26T03:49:36.847Z,101381.16
2024-02-26T03:52:04.809Z,101412.38
2024-02-26T03:54:32.367Z,101396.44
2024-02-26T03:57:00.219Z,101406.56
2024-02-26T03:59:28.113Z,101415.38
2024-02-26T04:01:55.597Z,101424.53
2024-02-26T04:04:22.987Z,101416.25
2024-02-26T04:06:50.693Z,101413.00
2024-02-26T04:09:18.408Z,101422.47
2024-02-26T04:11:46.235Z,101434.72
2024-02-26T04:14:13.889Z,101435.97
2024-02-26T04:16:41.519Z,101400.13
2024-02-26T04:19:09.516Z,101421.88
2024-02-26T04:21:37.547Z,101419.34
2024-02-26T04:24:05.585Z,101445.16
2024-02-26T04:26:33.274Z,101434.59
2024-02-26T04:29:00.950Z,101439.19
2024-02-26T04:31:28.741Z,101439.72
2024-02-26T04:33:56.481Z,101398.63
2024-02-26T04:36:24.656Z,101429.19
2024-02-26T04:38:52.667Z,101439.81
2024-02-26T04:41:20.415Z,101430.34
2024-02-26T04:43:47.912Z,101417.59
2024-02-26T04:46:16.448Z,101425.63
2024-02-26T04:48:44.380Z,101409.81
2024-02-26T04:51:11.993Z,101355.06
2024-02-26T04:53:39.633Z,101390.41
2024-02-26T04:56:07.685Z,101436.78
2024-02-26T04:58:35.759Z,101448.22
2024-02-26T05:01:04.751Z,101439.41
2024-02-26T05:03:34.731Z,101440.38
2024-02-26T05:06:05.200Z,101420.47
2024-02-26T05:08:34.912Z,101418.97
2024-02-26T05:11:03.858Z,101429.25
2024-02-26T05:13:31.479Z,101425.75
2024-02-26T05:16:01.509Z,101370.63
2024-02-26T05:18:30.048Z,101402.13
2024-02-26T05:20:58.130Z,101412.63
2024-02-26T05:23:25.845Z,101419.53
2024-02-26T05:25:53.359Z,101416.56
2024-02-26T05:28:21.969Z,101421.81
2024-02-26T05:30:49.563Z,101419.19
2024-02-26T05:33:18.924Z,101410.84
2024-02-26T05:35:47.008Z,101424.72
2024-02-26T05:38:15.563Z,101337.53
2024-02-26T05:40:44.780Z,101418.41
2024-02-26T05:43:12.987Z,101424.44
2024-02-26T05:45:40.846Z,101385.16
2024-02-26T05:48:08.860Z,101381.00
2024-02-26T05:50:36.568Z,101438.25
2024-02-26T05:53:04.347Z,101427.69
2024-02-26T05:55:31.787Z,101430.41
2024-02-26T05:57:59.533Z,101421.41
2024-02-26T06:00:27.474Z,101432.25
2024-02-26T06:02:55.217Z,101419.28
2024-02-26T06:05:22.801Z,101424.81
2024-02-26T06:07:50.426Z,101421.97
2024-02-26T06:10:18.077Z,101422.16
2024-02-26T06:12:46.139Z,101431.44
2024-02-26T06:15:14.588Z,101426.16
2024-02-26T06:17:42.564Z,101397.56
2024-02-26T06:20:14.195Z,101425.59
2024-02-26T06:22:43.509Z,101431.13
2024-02-26T06:25:11.077Z,101426.41
2024-02-26T06:27:38.931Z,101432.25
2024-02-26T06:30:07.154Z,101423.41
2024-02-26T06:32:34.709Z,101366.97
2024-02-26T06:35:03.115Z,101425.53
2024-02-26T06:37:32.203Z,101421.56
2024-02-26T06:39:59.813Z,101422.13
2024-02-26T06:42:27.779Z,101395.06
2024-02-26T06:44:55.436Z,101416.13
2024-02-26T06:47:23.183Z,101418.84
2024-02-26T06:49:51.082Z,101425.00
2024-02-26T06:52:18.887Z,101408.00
2024-02-26T06:54:48.111Z,101421.31
2024-02-26T06:57:15.778Z,101390.16
2024-02-26T06:59:47.592Z,101422.19
2024-02-26T07:02:15.902Z,101413.69
2024-02-26T07:04:43.752Z,101411.53
2024-02-26T07:07:12.096Z,101403.56
2024-02-26T07:09:39.872Z,101409.84
2024-02-26T07:12:07.635Z,101396.72
2024-02-26T07:14:35.246Z,101389.34
2024-02-26T07:17:02.718Z,101428.28
2024-02-26T07:19:30.476Z,101350.38
2024-02-26T07:21:58.075Z,101409.09
2024-02-26T07:24:25.749Z,101401.00
2024-02-26T07:26:55.959Z,101404.88
2024-02-26T07:29:23.628Z,101406.53
2024-02-26T07:31:51.208Z,101399.38
2024-02-26T07:34:19.539Z,101395.50
2024-02-26T07:36:47.142Z,101373.16
2024-02-26T07:39:16.239Z,101368.88
2024-02-26T07:41:48.087Z,101372.56
2024-02-26T07:44:15.783Z,101386.59
2024-02-26T07:46:43.271Z,101374.72
2024-02-26T07:49:10.924Z,101373.19
2024-02-26T07:51:38.615Z,101398.91
2024-02-26T07:54:06.416Z,101406.34
2024-02-26T07:56:34.084Z,101401.19
2024-02-26T07:59:01.883Z,101372.69
2024-02-26T08:01:29.793Z,101395.44
2024-02-26T08:03:57.764Z,101391.72
2024-02-26T08:06:26.380Z,101342.41
2024-02-26T08:08:56.542Z,101399.88
2024-02-26T08:11:24.065Z,101359.41
2024-02-26T08:13:51.701Z,101386.56
2024-02-26T08:16:19.747Z,101358.47
2024-02-26T08:18:47.392Z,101354.50
2024-02-26T08:21:16.304Z,101383.41
2024-02-26T08:23:45.499Z,101388.00
2024-02-26T08:26:13.209Z,101371.16
2024-02-26T08:28:40.961Z,101389.22
2024-02-26T08:31:09.512Z,101373.56
2024-02-26T08:33:37.470Z,101359.25
2024-02-26T08:36:06.697Z,101357.72
2024-02-26T08:38:36.058Z,101294.06
2024-02-26T08:41:04.253Z,101389.56
2024-02-26T08:43:31.795Z,101360.66
2024-02-26T08:45:59.332Z,101362.72
2024-02-26T08:48:27.433Z,101360.88
2024-02-26T08:50:55.528Z,101395.22
2024-02-26T08:53:27.945Z,101380.09
2024-02-26T08:56:02.787Z,101367.53
2024-02-26T08:58:30.621Z,101378.16
2024-02-26T09:00:58.480Z,101376.19
2024-02-26T09:03:27.473Z,101248.69
2024-02-26T09:05:55.702Z,101381.50
2024-02-26T09:08:23.504Z,101369.59
2024-02-26T09:10:51.247Z,101364.28
2024-02-26T09:13:20.214Z,101372.00
2024-02-26T09:15:47.836Z,101366.97
2024-02-26T09:18:16.358Z,101341.19
2024-02-26T09:20:44.192Z,101329.47
2024-02-26T09:23:11.689Z,101352.47
2024-02-26T09:25:39.639Z,101364.38
2024-02-26T09:28:07.837Z,101331.63
2024-02-26T09:30:35.491Z,101352.06
2024-02-26T09:33:03.208Z,101355.72
2024-02-26T09:35:31.722Z,101351.75
2024-02-26T09:37:59.305Z,101325.03
2024-02-26T09:40:26.898Z,101329.19
2024-02-26T09:43:06.004Z,101335.00
2024-02-26T09:45:35.903Z,101327.25
2024-02-26T09:48:06.325Z,101323.91
2024-02-26T09:50:34.072Z,101305.97
2024-02-26T09:53:04.077Z,101330.22
2024-02-26T09:55:31.945Z,101308.19
2024-02-26T09:58:00.632Z,101333.25
2024-02-26T10:00:34.295Z,101329.00
2024-02-26T10:03:06.678Z,101329.44
2024-02-26T10:05:35.544Z,101320.53
2024-02-26T10:08:05.588Z,101326.00
2024-02-26T10:10:35.226Z,101323.97
2024-02-26T10:13:05.254Z,101323.81
2024-02-26T10:15:33.019Z,101328.97
2024-02-26T10:18:01.025Z,101321.94
2024-02-26T10:20:29.807Z,101285.66
2024-02-26T10:22:57.496Z,101318.66
2024-02-26T10:25:25.096Z,101322.00
2024-02-26T10:27:53.301Z,101323.41
2024-02-26T10:30:23.258Z,101290.53
2024-02-26T10:32:52.034Z,101312.97
2024-02-26T10:35:22.179Z,101314.22
2024-02-26T10:37:51.498Z,101310.31
2024-02-26T10:40:19.342Z,101312.25
2024-02-26T10:42:47.352Z,101305.63
2024-02-26T10:45:15.389Z,101301.66
2024-02-26T10:47:46.514Z,101290.13
2024-02-26T10:50:18.127Z,101319.75
2024-02-26T10:52:45.845Z,101309.03
2024-02-26T10:55:21.429Z,101303.50
2024-02-26T10:57:53.634Z,101310.41
2024-02-26T11:00:21.292Z,101310.72
2024-02-26T11:02:50.187Z,101286.88
2024-02-26T11:05:18.671Z,101282.41
2024-02-26T11:07:48.489Z,101297.22
2024-02-26T11:10:16.824Z,101298.06
2024-02-26T11:12:47.403Z,101291.72
2024-02-26T11:15:15.629Z,101301.69
2024-02-26T11:17:45.893Z,101300.25
2024-02-26T11:20:15.131Z,101303.41
2024-02-26T11:22:42.948Z,101291.88
2024-02-26T11:25:12.605Z,101287.44
2024-02-26T11:27:46.322Z,101282.81
2024-02-26T11:30:17.273Z,101282.41
2024-02-26T11:32:49.215Z,101236.00
2024-02-26T11:35:20.063Z,101266.53
2024-02-26T11:37:55.587Z,101258.47
2024-02-26T11:40:27.170Z,101249.91
2024-02-26T11:42:55.559Z,101269.94
2024-02-26T11:45:41.499Z,101272.25
2024-02-26T11:48:21.892Z,101255.44
2024-02-26T11:50:54.999Z,101265.66
2024-02-26T11:53:32.756Z,101256.31
2024-02-26T11:56:25.752Z,101247.81
2024-02-26T11:58:58.916Z,101248.25
2024-02-26T12:01:40.115Z,101258.59
2024-02-26T12:04:12.856Z,101260.56
2024-02-26T12:06:43.780Z,101241.66
2024-02-26T12:09:12.193Z,101218.91
2024-02-26T12:11:40.949Z,101213.72
2024-02-26T12:14:10.668Z,101245.84
2024-02-26T12:16:39.397Z,101246.22
2024-02-26T12:19:10.006Z,101241.94
2024-02-26T12:21:43.598Z,101236.38
2024-02-26T12:24:19.466Z,101240.47
2024-02-26T12:26:47.178Z,101240.47
2024-02-26T12:29:15.619Z,101216.81
2024-02-26T12:31:44.803Z,101228.31
2024-02-26T12:34:12.666Z,101237.31
2024-02-26T12:36:41.611Z,101236.56
2024-02-26T12:39:10.883Z,101240.38
2024-02-26T12:41:40.630Z,101231.16
2024-02-26T12:44:09.527Z,101221.69
2024-02-26T12:46:37.084Z,101221.78
2024-02-26T12:49:05.164Z,101225.88
2024-02-26T12:51:32.898Z,101223.16
2024-02-26T12:54:00.851Z,101213.53
2024-02-26T12:56:29.629Z,101195.19
2024-02-26T12:59:00.578Z,101227.13
2024-02-26T13:01:29.642Z,101224.28
2024-02-26T13:03:58.660Z,101189.00
2024-02-26T13:06:28.866Z,101234.50
2024-02-26T13:09:00.221Z,101221.22
2024-02-26T13:11:30.517Z,101227.28
2024-02-26T13:13:58.102Z,101228.13
2024-02-26T13:16:26.555Z,101217.94
2024-02-26T13:18:54.316Z,101234.13
2024-02-26T13:21:25.917Z,101226.97
2024-02-26T13:23:54.496Z,101215.56
2024-02-26T13:26:25.310Z,101212.66
2024-02-26T13:29:06.593Z,101225.38
2024-02-26T13:31:44.875Z,101224.22
2024-02-26T13:34:25.064Z,101199.09
2024-02-26T13:36:53.021Z,101217.19
2024-02-26T13:39:28.641Z,101209.56
2024-02-26T13:41:56.595Z,101218.31
2024-02-26T13:44:24.722Z,101211.13
2024-02-26T13:46:52.362Z,101209.88
2024-02-26T13:49:20.190Z,101187.47
2024-02-26T13:51:47.901Z,101198.09
2024-02-26T13:54:16.448Z,101189.75
2024-02-26T13:56:48.458Z,101215.31
2024-02-26T13:59:16.395Z,101201.41
2024-02-26T14:01:43.920Z,101198.09
2024-02-26T14:04:11.813Z,101187.09
2024-02-26T14:06:41.000Z,101180.75
2024-02-26T14:09:08.606Z,101213.41
2024-02-26T14:11:36.928Z,101216.84
2024-02-26T14:14:04.394Z,101209.59
2024-02-26T14:16:32.845Z,101210.41
2024-02-26T14:19:00.890Z,101193.41
2024-02-26T14:21:28.779Z,101222.13
2024-02-26T14:23:57.693Z,101219.09
2024-02-26T14:26:25.370Z,101205.88
2024-02-26T14:28:53.349Z,101203.84
2024-02-26T14:31:21.256Z,101168.84
2024-02-26T14:33:51.436Z,101236.00
2024-02-26T14:36:23.627Z,101232.38
2024-02-26T14:38:51.403Z,101240.53
2024-02-26T14:41:19.265Z,101227.28
2024-02-26T14:43:47.933Z,101194.25
2024-02-26T14:46:15.621Z,101228.88
2024-02-26T14:48:43.526Z,101223.84
2024-02-26T14:51:11.130Z,101193.91
2024-02-26T14:53:38.744Z,101242.16
2024-02-26T14:56:06.442Z,101199.00
2024-02-26T14:58:34.116Z,101231.72
2024-02-26T15:01:02.169Z,101228.94
2024-02-26T15:03:31.108Z,101217.16
2024-02-26T15:05:58.642Z,101240.75
2024-02-26T15:08:26.541Z,101212.78
2024-02-26T15:10:54.111Z,101232.59
2024-02-26T15:13:24.340Z,101236.06
2024-02-26T15:15:52.108Z,101219.19
2024-02-26T15:18:19.953Z,101214.19
2024-02-26T15:20:47.634Z,101216.41
2024-02-26T15:23:15.305Z,101236.03
2024-02-26T15:25:47.173Z,101228.78
2024-02-26T15:28:16.450Z,101214.44
2024-02-26T15:30:44.727Z,101214.19
2024-02-26T15:33:13.395Z,101198.97
2024-02-26T15:35:46.283Z,101223.34
2024-02-26T15:38:16.599Z,101234.50
2024-02-26T15:40:45.853Z,101219.28
2024-02-26T15:43:15.439Z,101215.22
2024-02-26T15:45:43.506Z,101230.66
2024-02-26T15:48:11.769Z,101172.97
2024-02-26T15:50:42.457Z,101242.72
2024-02-26T15:53:10.237Z,101236.75
2024-02-26T15:55:37.947Z,101221.34
2024-02-26T15:58:10.669Z,101191.06
2024-02-26T16:00:43.272Z,101197.94
2024-02-26T16:03:11.428Z,101201.88
2024-02-26T16:05:39.563Z,101227.09
2024-02-26T16:08:22.098Z,101224.56
2024-02-26T16:10:50.304Z,101226.13
2024-02-26T16:13:21.201Z,101201.75
2024-02-26T16:18:47.700Z,101227.41
2024-02-26T16:21:15.706Z,101189.72
2024-02-26T16:23:43.395Z,101225.56
2024-02-26T16:26:11.114Z,101215.19
2024-02-26T16:28:38.724Z,101221.13
2024-02-26T16:31:06.449Z,101221.94
2024-02-26T16:33:34.187Z,101176.69
2024-02-26T16:36:02.856Z,101206.41
2024-02-26T16:38:30.590Z,101214.06
2024-02-26T16:40:58.188Z,101218.03
2024-02-26T16:43:26.156Z,101212.94
2024-02-26T16:45:54.111Z,101218.25
2024-02-26T16:48:21.856Z,101222.16
2024-02-26T16:50:50.681Z,101196.25
2024-02-26T16:53:18.817Z,101222.03
2024-02-26T16:55:46.585Z,101220.94
2024-02-26T16:58:14.586Z,101187.91
2024-02-26T17:00:42.161Z,101178.72
2024-02-26T17:03:09.878Z,101194.97
2024-02-26T17:05:37.545Z,101221.72
2024-02-26T17:08:05.313Z,101225.13
2024-02-26T17:10:33.616Z,101205.59
2024-02-26T17:13:01.277Z,101209.69
2024-02-26T17:15:29.051Z,101151.88
2024-02-26T17:17:56.829Z,101196.44
2024-02-26T17:20:24.465Z,101192.47
2024-02-26T17:22:52.026Z,101213.94
2024-02-26T17:25:20.701Z,101181.66
2024-02-26T17:27:48.690Z,101177.50
2024-02-26T17:30:16.282Z,101195.97
2024-02-26T17:32:44.064Z,101157.78
2024-02-26T17:35:15.624Z,101157.84
2024-02-26T17:37:45.523Z,101172.53
2024-02-26T17:40:13.890Z,101177.41
2024-02-26T17:42:41.542Z,101176.25
2024-02-26T17:45:11.010Z,101110.84
2024-02-26T17:47:38.760Z,101184.38
2024-02-26T17:50:06.889Z,101189.66
2024-02-26T17:52:37.984Z,101175.44
2024-02-26T17:55:06.357Z,101186.09
2024-02-26T17:57:33.974Z,101178.78
2024-02-26T18:00:01.716Z,101183.97
2024-02-26T18:02:30.665Z,101206.78
2024-02-26T18:04:58.582Z,101167.53
2024-02-26T18:07:26.393Z,101163.53
2024-02-26T18:09:53.870Z,101203.44
2024-02-26T18:12:21.440Z,101191.88
2024-02-26T18:14:49.353Z,101155.88
2024-02-26T18:17:18.988Z,101197.41
2024-02-26T18:19:46.878Z,101214.25
2024-02-26T18:22:15.912Z,101220.84
2024-02-26T18:24:43.570Z,101207.06
2024-02-26T18:27:11.679Z,101193.06
2024-02-26T18:29:39.206Z,101205.88
2024-02-26T18:32:07.634Z,101192.97
2024-02-26T18:34:37.923Z,101120.38
2024-02-26T18:37:06.673Z,101138.03
2024-02-26T18:39:34.626Z,101189.19
2024-02-26T18:42:02.967Z,101185.06
2024-02-26T18:44:31.719Z,101198.09
2024-02-26T18:47:02.331Z,101181.66
2024-02-26T18:49:34.880Z,101182.00
2024-02-26T18:52:04.456Z,101163.22
2024-02-26T18:54:37.320Z,101193.44
2024-02-26T18:57:07.353Z,101159.59
2024-02-26T18:59:36.359Z,101187.59
2024-02-26T19:02:05.736Z,101191.78
2024-02-26T19:04:35.101Z,101201.38
2024-02-26T19:07:03.067Z,101208.03
2024-02-26T19:09:31.608Z,101213.69
2024-02-26T19:12:01.969Z,101211.88
2024-02-26T19:14:29.817Z,101201.00
2024-02-26T19:16:59.935Z,101201.09
2024-02-26T19:19:28.334Z,101199.09
2024-02-26T19:21:58.441Z,101160.09
2024-02-26T19:24:26.233Z,101207.25
2024-02-26T19:26:53.939Z,101217.53
2024-02-26T19:29:21.700Z,101216.84
2024-02-26T19:31:49.990Z,101200.06
2024-02-26T19:34:17.767Z,101225.53
2024-02-26T19:36:48.185Z,101225.41
2024-02-26T19:39:15.772Z,101217.38
2024-02-26T19:41:43.326Z,101213.00
2024-02-26T19:44:14.023Z,101178.88
2024-02-26T19:46:41.761Z,101207.75
2024-02-26T19:49:13.669Z,101200.06
2024-02-26T19:51:45.156Z,101169.63
2024-02-26T19:54:14.110Z,101173.81
2024-02-26T19:56:42.546Z,101220.25
2024-02-26T19:59:10.333Z,101230.47
2024-02-26T20:01:37.771Z,101206.03
2024-02-26T20:04:05.704Z,101214.88
2024-02-26T20:06:34.396Z,101229.63
2024-02-26T20:09:02.227Z,101235.53
2024-02-26T20:11:30.169Z,101242.25
2024-02-26T20:13:57.722Z,101248.09
2024-02-26T20:16:25.293Z,101248.34
2024-02-26T20:18:52.906Z,101209.88
2024-02-26T20:21:20.780Z,101208.47
2024-02-26T20:23:48.805Z,101242.41
2024-02-26T20:26:16.374Z,101246.16
2024-02-26T20:28:46.831Z,101243.47
2024-02-26T20:31:14.348Z,101252.25
2024-02-26T20:33:43.735Z,101243.53
2024-02-26T20:36:11.289Z,101235.53
2024-02-26T20:38:39.314Z,101242.91
2024-02-26T20:41:07.172Z,101213.16
2024-02-26T20:43:35.586Z,101253.53
2024-02-26T20:46:03.102Z,101261.69
2024-02-26T20:48:33.190Z,101229.13
2024-02-26T20:51:00.892Z,101264.19
2024-02-26T20:53:28.567Z,101227.84
2024-02-26T20:55:56.242Z,101239.59
2024-02-26T20:58:24.040Z,101250.06
2024-02-26T21:00:51.634Z,101262.94
2024-02-26T21:03:19.885Z,101247.72
2024-02-26T21:05:47.609Z,101245.16
2024-02-26T21:08:20.392Z,101244.44
2024-02-26T21:10:57.202Z,101199.03
2024-02-26T21:13:24.817Z,101251.00
2024-02-26T21:15:52.305Z,101239.03
2024-02-26T21:18:21.768Z,101230.50
2024-02-26T21:20:50.867Z,101225.88
2024-02-26T21:23:18.979Z,101257.03
2024-02-26T21:25:46.331Z,101261.06
2024-02-26T21:28:14.738Z,101226.97
2024-02-26T21:30:42.365Z,101264.38
2024-02-26T21:33:09.961Z,101266.84
2024-02-26T21:35:37.833Z,101211.44
2024-02-26T21:38:08.441Z,101264.97
2024-02-26T21:40:37.835Z,101268.69
2024-02-26T21:43:05.449Z,101249.91
2024-02-26T21:45:33.245Z,101216.53
2024-02-26T21:48:00.927Z,101262.94
2024-02-26T21:50:28.713Z,101271.09
2024-02-26T21:52:56.209Z,101281.09
2024-02-26T21:55:24.858Z,101273.84
2024-02-26T21:57:52.394Z,101276.69
2024-02-26T22:00:20.106Z,101266.97
2024-02-26T22:02:49.231Z,101272.63
2024-02-26T22:05:17.067Z,101280.84
2024-02-26T22:07:44.639Z,101281.22
2024-02-26T22:10:12.278Z,101286.28
2024-02-26T22:12:40.378Z,101276.72
2024-02-26T22:15:12.226Z,101258.03
2024-02-26T22:17:41.984Z,101279.31
2024-02-26T22:20:11.047Z,101294.13
2024-02-26T22:22:40.896Z,101292.22
2024-02-26T22:25:09.242Z,101251.22
2024-02-26T22:27:37.341Z,101287.59
2024-02-26T22:30:05.388Z,101239.00
2024-02-26T22:32:33.332Z,101277.50
2024-02-26T22:35:01.185Z,101290.97
2024-02-26T22:37:29.341Z,101291.84
2024-02-26T22:39:56.922Z,101293.84
2024-02-26T22:42:24.760Z,101308.47
2024-02-26T22:44:52.654Z,101296.69
2024-02-26T22:47:20.211Z,101298.47
2024-02-26T22:49:47.784Z,101307.81
2024-02-26T22:52:15.769Z,101325.88
2024-02-26T22:54:43.221Z,101307.69
2024-02-26T22:57:10.737Z,101310.56
2024-02-26T22:59:38.567Z,101323.03
2024-02-26T23:02:06.267Z,101302.28
2024-02-26T23:04:33.812Z,101325.97
2024-02-26T23:07:03.731Z,101313.63
2024-02-26T23:09:31.467Z,101316.41
2024-02-26T23:11:59.310Z,101296.84
2024-02-26T23:14:26.837Z,101250.91
2024-02-26T23:16:54.534Z,101313.59
2024-02-26T23:19:22.467Z,101299.41
2024-02-26T23:21:50.363Z,101298.53
2024-02-26T23:24:18.022Z,101324.16
2024-02-26T23:26:45.934Z,101306.19
2024-02-26T23:29:13.569Z,101322.06
2024-02-26T23:31:41.434Z,101324.00
2024-02-26T23:34:09.505Z,101301.41
2024-02-26T23:36:38.165Z,101335.94
2024-02-26T23:39:06.186Z,101335.38
2024-02-26T23:41:34.336Z,101324.47
2024-02-26T23:44:02.024Z,101329.00
2024-02-26T23:46:37.173Z,101319.75
2024-02-26T23:49:07.694Z,101331.53
2024-02-26T23:51:35.399Z,101327.56
2024-02-26T23:54:02.931Z,101315.59
2024-02-26T23:56:30.677Z,101317.69
2024-02-26T23:58:58.662Z,101322.41
